Time;durP1;ratioP1;P1;durP2;ratioP2;P2;SDS_P1;SDS_P2;PMS_P1;PMS_P2;Temp;Humidity;BMP_temperature;BMP_pressure;BME280_temperature;BME280_humidity;BME280_pressure;Samples;Min_cycle;Max_cycle;Signal;HPM_P1;HPM_P2
2022/04/22 04:17:48;;;;;;;;;;;;;;;11.44;55.30;95251.19;4282506;27;5631;-69
2022/04/22 04:24:30;;;;;;;;;;;;;;;11.34;54.84;95245.72;4283156;27;5610;-69
2022/04/22 04:26:33;;;;;;;;;;;;;;;11.35;54.99;95249.97;4280505;27;5649;-69
2022/04/22 04:28:36;;;;;;;;;;;;;;;11.37;55.42;95250.53;4282939;27;5701;-70
2022/04/22 04:30:38;;;;;;;;;;;;;;;11.41;55.09;95253.50;4282979;27;5650;-69
2022/04/22 04:32:41;;;;;;;;;;;;;;;11.43;55.07;95249.56;4281541;27;5673;-70
2022/04/22 04:34:44;;;;;;;;;;;;;;;11.45;55.45;95242.22;4279286;27;5628;-69
2022/04/22 04:36:46;;;;;;;;;;;;;;;11.40;55.46;95243.97;4266394;27;5636;-69
2022/04/22 04:38:47;;;;;;;;;;;;;;;11.36;55.74;95243.63;4274279;27;5578;-69
2022/04/22 04:40:49;;;;;;;;;;;;;;;11.30;56.34;95250.66;4277130;27;5623;-70
2022/04/22 04:42:52;;;;;;;;;;;;;;;11.23;56.40;95252.66;4270614;27;5810;-69
2022/04/22 04:44:54;;;;;;;;;;;;;;;11.26;56.03;95254.81;4276685;27;5635;-70
2022/04/22 04:46:55;;;;;;;;;;;;;;;11.28;56.16;95257.22;4269664;27;5690;-69
2022/04/22 04:49:01;;;;;;;;;;;;;;;11.28;55.87;95258.03;4281085;27;5806;-70
2022/04/22 04:51:04;;;;;;;;;;;;;;;11.18;56.31;95257.00;4282778;27;5596;-69
2022/04/22 04:53:06;;;;;;;;;;;;;;;11.15;56.69;95257.50;4281248;27;5578;-69
2022/04/22 04:55:11;;;;;;;;;;;;;;;11.15;56.46;95257.50;4281335;27;5563;-70
2022/04/22 04:57:13;;;;;;;;;;;;;;;11.14;56.69;95258.53;4282981;27;5631;-70
2022/04/22 04:59:16;;;;;;;;;;;;;;;11.15;56.43;95262.78;4281602;27;5652;-70
2022/04/22 05:01:18;;;;;;;;;;;;;;;11.12;56.18;95260.59;4289229;27;5585;-70
2022/04/22 05:03:20;;;;;;;;;;;;;;;11.13;56.33;95262.22;4284418;27;6093;-70
2022/04/22 05:05:21;;;;;;;;;;;;;;;11.13;56.55;95263.00;4282830;27;5602;-70
2022/04/22 05:07:23;;;;;;;;;;;;;;;11.13;56.49;95270.16;4282028;27;5606;-70
2022/04/22 05:09:25;;;;;;;;;;;;;;;11.14;56.00;95269.09;4276192;27;5711;-69
2022/04/22 05:11:26;;;;;;;;;;;;;;;11.15;56.06;95270.72;4268375;27;5760;-70
2022/04/22 05:13:28;;;;;;;;;;;;;;;11.11;55.94;95269.59;4270589;27;5737;-71
2022/04/22 05:15:32;;;;;;;;;;;;;;;11.11;56.11;95272.22;4269056;27;5558;-70
2022/04/22 05:17:34;;;;;;;;;;;;;;;11.05;56.16;95272.09;4271195;27;5619;-70
2022/04/22 05:19:36;;;;;;;;;;;;;;;11.04;55.81;95278.44;4267634;27;5817;-70
2022/04/22 05:21:37;;;;;;;;;;;;;;;11.01;56.19;95276.25;4270736;27;5716;-70
2022/04/22 05:23:39;;;;;;;;;;;;;;;11.07;55.91;95274.50;4278880;27;5740;-70
2022/04/22 05:25:40;;;;;;;;;;;;;;;11.09;55.77;95281.16;4268073;27;5694;-70
2022/04/22 05:27:43;;;;;;;;;;;;;;;11.14;55.91;95277.84;4270781;27;5598;-70
2022/04/22 05:34:25;;;;;;;;;;;;;;;11.15;56.33;95276.00;4268157;27;5666;-70
2022/04/22 05:36:27;;;;;;;;;;;;;;;11.16;55.92;95281.06;4257918;27;5710;-67
2022/04/22 05:38:29;;;;;;;;;;;;;;;11.12;56.22;95269.34;4268019;27;5705;-70
2022/04/22 05:40:35;;;;;;;;;;;;;;;11.18;56.06;95272.88;4267586;27;5652;-66
2022/04/22 05:42:39;;;;;;;;;;;;;;;11.24;56.20;95279.91;4286438;27;6428;-66
2022/04/22 05:44:41;;;;;;;;;;;;;;;11.14;57.53;95277.84;4276095;27;6303;-67
2022/04/22 05:46:42;;;;;;;;;;;;;;;11.15;56.84;95276.00;4268117;27;5715;-67
2022/04/22 05:48:44;;;;;;;;;;;;;;;11.17;56.16;95279.22;4268489;27;5656;-67
2022/04/22 05:50:45;;;;;;;;;;;;;;;11.19;56.55;95274.50;4269696;27;6264;-67
2022/04/22 05:52:48;;;;;;;;;;;;;;;11.21;56.48;95272.41;4270156;27;6555;-67
2022/04/22 05:54:50;;;;;;;;;;;;;;;11.29;56.42;95272.06;4269347;27;5618;-66
2022/04/22 05:56:52;;;;;;;;;;;;;;;11.33;56.36;95275.84;4269516;27;5818;-66
2022/04/22 05:58:54;;;;;;;;;;;;;;;11.31;56.73;95278.72;4269849;27;5607;-66
2022/04/22 06:00:55;;;;;;;;;;;;;;;11.35;56.51;95273.78;4268409;27;5666;-66
2022/04/22 06:02:58;;;;;;;;;;;;;;;11.41;56.35;95278.13;4264560;27;5689;-66
2022/04/22 06:05:00;;;;;;;;;;;;;;;11.49;55.96;95285.69;4259137;27;5591;-66
2022/04/22 06:07:01;;;;;;;;;;;;;;;11.57;55.73;95281.88;4270549;27;6263;-66
2022/04/22 06:11:24;;;;;;;;;;;;;;;11.66;56.13;95275.97;4260118;27;5694;-67
2022/04/22 06:13:25;;;;;;;;;;;;;;;11.69;55.77;95276.53;4256488;27;5673;-66
2022/04/22 06:15:28;;;;;;;;;;;;;;;11.49;56.62;95275.09;4268570;27;5845;-66
2022/04/22 06:17:30;;;;;;;;;;;;;;;11.29;57.56;95274.69;4269828;27;5615;-66
2022/04/22 06:19:32;;;;;;;;;;;;;;;11.66;56.34;95275.97;4268311;27;5598;-66
2022/04/22 06:21:34;;;;;;;;;;;;;;;11.89;56.38;95268.97;4266487;27;5567;-67
2022/04/22 06:23:35;;;;;;;;;;;;;;;11.61;56.73;95272.41;4267810;27;5617;-66
2022/04/22 06:25:37;;;;;;;;;;;;;;;11.76;56.82;95274.53;4268114;27;6374;-66
2022/04/22 06:27:41;;;;;;;;;;;;;;;12.10;55.44;95276.22;4270055;27;5598;-66
2022/04/22 06:29:43;;;;;;;;;;;;;;;12.42;54.65;95268.53;4269082;27;5598;-66
2022/04/22 06:31:45;;;;;;;;;;;;;;;12.61;54.16;95270.94;4269017;27;5602;-66
2022/04/22 06:33:47;;;;;;;;;;;;;;;12.75;53.88;95273.00;4262459;27;5847;-67
2022/04/22 06:35:50;;;;;;;;;;;;;;;12.87;53.68;95272.09;4269026;27;5716;-66
2022/04/22 06:37:52;;;;;;;;;;;;;;;12.77;53.54;95275.41;4268535;27;5654;-67
2022/04/22 06:46:55;;;;;;;;;;;;;;;12.31;54.87;95274.72;4266241;27;5213;-67
2022/04/22 06:48:57;;;;;;;;;;;;;;;12.21;54.71;95272.69;4269855;27;5693;-67
2022/04/22 06:51:00;;;;;;;;;;;;;;;12.28;54.15;95280.50;4268960;27;5614;-66
2022/04/22 06:53:02;;;;;;;;;;;;;;;12.35;54.40;95280.38;4267346;27;5713;-66
2022/04/22 06:55:04;;;;;;;;;;;;;;;11.86;57.59;95277.41;4264806;27;5686;-66
2022/04/22 06:57:06;;;;;;;;;;;;;;;11.60;57.99;95276.91;4268424;27;5077;-65
2022/04/22 06:59:09;;;;;;;;;;;;;;;11.88;56.79;95276.09;4265672;27;5638;-66
2022/04/22 07:01:10;;;;;;;;;;;;;;;11.80;58.16;95276.50;4266581;27;5598;-67
2022/04/22 07:03:32;;;;;;;;;;;;;;;11.66;58.18;95289.22;4268773;27;5706;-66
2022/04/22 07:05:35;;;;;;;;;;;;;;;11.93;56.97;95280.72;4255850;27;5645;-66
2022/04/22 07:07:37;;;;;;;;;;;;;;;12.01;56.88;95282.97;4257350;27;5779;-66
2022/04/22 07:09:40;;;;;;;;;;;;;;;12.06;56.69;95279.59;4258333;27;6254;-66
2022/04/22 07:11:44;;;;;;;;;;;;;;;12.04;56.90;95282.50;4265776;27;5774;-66
2022/04/22 07:13:46;;;;;;;;;;;;;;;12.09;56.73;95284.41;4269139;27;6287;-66
2022/04/22 07:15:50;;;;;;;;;;;;;;;12.02;57.03;95295.19;4268178;27;5708;-66
2022/04/22 07:17:52;;;;;;;;;;;;;;;12.04;57.19;95289.63;4269006;27;5607;-66
2022/04/22 07:19:54;;;;;;;;;;;;;;;12.03;57.00;95286.19;4268738;27;5622;-66
2022/04/22 07:21:56;;;;;;;;;;;;;;;12.00;57.22;95285.84;4268183;27;5777;-67
2022/04/22 07:23:59;;;;;;;;;;;;;;;12.01;57.05;95284.81;4268215;27;5615;-67
2022/04/22 07:26:05;;;;;;;;;;;;;;;12.05;56.90;95278.81;4268064;27;6620;-67
2022/04/22 07:28:07;;;;;;;;;;;;;;;12.05;57.75;95288.59;4268572;27;5777;-67
2022/04/22 07:30:12;;;;;;;;;;;;;;;12.00;57.49;95278.69;4265671;27;5551;-67
2022/04/22 07:32:14;;;;;;;;;;;;;;;12.05;56.63;95280.66;4268855;27;5610;-67
2022/04/22 07:34:16;;;;;;;;;;;;;;;12.10;56.24;95284.16;4268102;27;5606;-67
2022/04/22 07:36:18;;;;;;;;;;;;;;;11.95;57.46;95291.88;4269059;27;5607;-66
2022/04/22 07:38:21;;;;;;;;;;;;;;;12.11;56.42;95293.72;4267307;27;5610;-67
2022/04/22 07:40:23;;;;;;;;;;;;;;;11.80;57.75;95292.41;4267621;27;5632;-67
2022/04/22 07:46:46;;;;;;;;;;;;;;;11.96;56.68;95288.16;4268092;27;5614;-67
2022/04/22 07:47:26;;;;;;;;;;;;;;;12.06;56.02;95285.69;4267615;27;5606;-66
2022/04/22 07:49:29;;;;;;;;;;;;;;;12.19;56.06;95285.41;4268415;27;5859;-66
2022/04/22 07:51:31;;;;;;;;;;;;;;;12.22;55.42;95295.50;4268492;27;5618;-67
2022/04/22 07:53:35;;;;;;;;;;;;;;;12.28;55.17;95290.31;4265859;27;5607;-66
2022/04/22 07:55:37;;;;;;;;;;;;;;;12.02;55.96;95286.44;4267653;27;5720;-66
2022/04/22 07:57:40;;;;;;;;;;;;;;;12.07;55.79;95289.16;4267981;27;5638;-65
2022/04/22 07:59:45;;;;;;;;;;;;;;;12.18;55.04;95289.09;4265855;27;5575;-67
2022/04/22 08:01:47;;;;;;;;;;;;;;;12.21;55.61;95293.09;4267645;27;5749;-67
2022/04/22 08:03:49;;;;;;;;;;;;;;;11.79;56.44;95297.91;4267278;27;5700;-66
2022/04/22 08:05:50;;;;;;;;;;;;;;;12.08;55.66;95298.69;4260486;27;5727;-66
2022/04/22 08:07:53;;;;;;;;;;;;;;;12.18;55.19;95294.38;4250579;27;5735;-66
2022/04/22 08:09:54;;;;;;;;;;;;;;;12.09;55.43;95292.34;4256842;27;5702;-66
2022/04/22 08:11:56;;;;;;;;;;;;;;;11.81;56.37;95304.59;4264383;27;5681;-66
2022/04/22 08:13:59;;;;;;;;;;;;;;;11.98;55.98;95295.88;4264353;27;5806;-66
2022/04/22 08:16:01;;;;;;;;;;;;;;;12.17;55.08;95292.78;4263598;27;5685;-66
2022/04/22 08:18:04;;;;;;;;;;;;;;;12.12;55.44;95300.66;4265751;27;5690;-67
2022/04/22 08:20:06;;;;;;;;;;;;;;;12.18;55.83;95293.59;4265517;27;5670;-66
2022/04/22 08:22:08;;;;;;;;;;;;;;;12.10;56.18;95300.06;4265331;27;5725;-67
2022/04/22 08:24:10;;;;;;;;;;;;;;;12.16;55.88;95301.78;4265602;27;6395;-66
2022/04/22 08:26:13;;;;;;;;;;;;;;;12.35;54.94;95304.22;4265385;27;5897;-66
2022/04/22 08:28:15;;;;;;;;;;;;;;;12.40;55.40;95304.28;4267124;27;6933;-67
2022/04/22 08:30:17;;;;;;;;;;;;;;;12.35;55.31;95302.38;4265423;27;5717;-66
2022/04/22 08:32:19;;;;;;;;;;;;;;;12.39;54.94;95300.03;4265515;27;5118;-67
2022/04/22 08:34:20;;;;;;;;;;;;;;;12.21;55.53;95296.56;4264432;27;7704;-67
2022/04/22 08:36:23;;;;;;;;;;;;;;;12.23;54.81;95297.13;4260156;27;5678;-66
2022/04/22 08:38:25;;;;;;;;;;;;;;;12.24;54.63;95293.44;4248083;27;5758;-66
2022/04/22 08:40:27;;;;;;;;;;;;;;;12.07;54.94;95292.59;4252403;27;6660;-67
2022/04/22 08:42:30;;;;;;;;;;;;;;;12.21;55.15;95288.59;4264401;27;5685;-66
2022/04/22 08:44:39;;;;;;;;;;;;;;;12.08;55.77;95296.84;4258229;27;5733;-66
2022/04/22 08:51:22;;;;;;;;;;;;;;;11.94;56.82;95292.91;4255245;27;5655;-67
2022/04/22 08:53:28;;;;;;;;;;;;;;;12.08;56.19;95288.91;4268593;27;5762;-66
2022/04/22 08:55:32;;;;;;;;;;;;;;;12.08;55.72;95286.25;4268590;27;5588;-66
2022/04/22 08:57:34;;;;;;;;;;;;;;;12.28;55.35;95293.75;4268506;27;5676;-68
2022/04/22 08:59:35;;;;;;;;;;;;;;;12.36;55.64;95280.13;4268325;27;5782;-66
2022/04/22 09:01:38;;;;;;;;;;;;;;;12.40;56.32;95285.72;4268330;27;5723;-66
2022/04/22 09:03:40;;;;;;;;;;;;;;;12.35;55.80;95280.38;4268616;27;6357;-66
2022/04/22 09:05:42;;;;;;;;;;;;;;;12.34;56.07;95286.69;4268380;27;5675;-66
2022/04/22 09:07:44;;;;;;;;;;;;;;;12.16;56.99;95283.22;4268293;27;5619;-67
2022/04/22 09:09:49;;;;;;;;;;;;;;;12.31;56.50;95284.53;4267802;27;5713;-66
2022/04/22 09:11:52;;;;;;;;;;;;;;;12.30;56.26;95285.56;4268122;27;5782;-66
2022/04/22 09:13:53;;;;;;;;;;;;;;;12.38;56.24;95282.53;4268493;27;5185;-66
2022/04/22 09:15:56;;;;;;;;;;;;;;;12.44;56.47;95284.19;4267864;27;7724;-66
2022/04/22 09:18:14;;;;;;;;;;;;;;;12.55;55.70;95278.00;4268215;27;5735;-66
2022/04/22 09:20:18;;;;;;;;;;;;;;;12.59;55.30;95284.44;4267918;27;5737;-66
2022/04/22 09:22:25;;;;;;;;;;;;;;;12.59;55.12;95284.44;4268123;27;6430;-66
2022/04/22 09:24:26;;;;;;;;;;;;;;;12.62;55.17;95280.50;4268346;27;5669;-66
2022/04/22 09:26:30;;;;;;;;;;;;;;;12.63;54.70;95279.47;4268012;27;5748;-66
2022/04/22 09:28:33;;;;;;;;;;;;;;;12.71;54.10;95282.50;4268089;27;5824;-66
2022/04/22 09:30:34;;;;;;;;;;;;;;;12.70;53.97;95278.25;4267313;27;5717;-66
2022/04/22 09:32:40;;;;;;;;;;;;;;;12.72;54.03;95272.72;4267601;27;5722;-66
2022/04/22 09:34:42;;;;;;;;;;;;;;;12.60;54.60;95275.44;4268174;27;5713;-67
2022/04/22 09:44:00;;;;;;;;;;;;;;;12.49;55.49;95268.38;4267741;27;5689;-67
2022/04/22 09:46:02;;;;;;;;;;;;;;;12.48;54.63;95264.13;4266294;27;5698;-67
2022/04/22 09:48:17;;;;;;;;;;;;;;;12.64;54.90;95270.47;4267162;27;5734;-66
2022/04/22 09:50:38;;;;;;;;;;;;;;;12.63;54.97;95264.34;4267019;27;5728;-66
2022/04/22 09:52:46;;;;;;;;;;;;;;;12.65;55.33;95267.56;4267318;27;5713;-66
2022/04/22 09:55:02;;;;;;;;;;;;;;;12.79;55.41;95262.72;4267653;27;5752;-66
2022/04/22 09:57:09;;;;;;;;;;;;;;;12.53;55.55;95256.25;4267452;27;5833;-67
2022/04/22 09:59:25;;;;;;;;;;;;;;;12.63;56.00;95267.00;4267556;27;5705;-67
2022/04/22 10:01:27;;;;;;;;;;;;;;;12.70;55.49;95254.38;4267131;27;5697;-67
2022/04/22 10:03:49;;;;;;;;;;;;;;;12.43;56.62;95256.09;4267116;27;5745;-67
2022/04/22 10:05:55;;;;;;;;;;;;;;;12.40;56.00;95256.56;4260597;27;5693;-67
2022/04/22 10:08:00;;;;;;;;;;;;;;;12.15;56.92;95256.97;4266309;27;5726;-67
2022/04/22 10:10:04;;;;;;;;;;;;;;;12.19;56.61;95247.50;4265818;27;5709;-66
2022/04/22 10:12:09;;;;;;;;;;;;;;;12.19;56.77;95253.59;4267007;27;5622;-67
2022/04/22 10:14:11;;;;;;;;;;;;;;;12.42;57.03;95251.84;4267001;27;5708;-68
2022/04/22 10:16:14;;;;;;;;;;;;;;;12.57;56.54;95253.91;4265990;27;5701;-67
2022/04/22 10:18:16;;;;;;;;;;;;;;;12.68;55.79;95251.16;4266121;27;5713;-66
2022/04/22 10:20:19;;;;;;;;;;;;;;;12.77;55.76;95249.69;4259877;27;5769;-66
2022/04/22 10:22:22;;;;;;;;;;;;;;;12.96;55.68;95252.88;4248590;27;5696;-65
2022/04/22 10:24:26;;;;;;;;;;;;;;;12.97;54.89;95248.38;4266765;27;6395;-66
2022/04/22 10:26:28;;;;;;;;;;;;;;;13.00;53.92;95253.19;4267325;27;5765;-66
2022/04/22 10:28:31;;;;;;;;;;;;;;;12.75;54.04;95251.78;4248390;27;5791;-66
2022/04/22 10:30:33;;;;;;;;;;;;;;;12.69;53.93;95250.13;4265065;27;5689;-66
2022/04/22 10:32:39;;;;;;;;;;;;;;;12.87;54.56;95243.75;4250062;27;5715;-66
2022/04/22 10:34:44;;;;;;;;;;;;;;;12.85;54.16;95239.72;4258290;27;5712;-66
2022/04/22 10:36:54;;;;;;;;;;;;;;;12.84;54.48;95244.22;4266370;27;6535;-66
2022/04/22 10:38:55;;;;;;;;;;;;;;;13.06;53.90;95247.72;4249791;27;6435;-66
2022/04/22 10:41:00;;;;;;;;;;;;;;;12.87;54.48;95243.75;4265788;27;6272;-66
2022/04/22 10:43:02;;;;;;;;;;;;;;;13.03;53.67;95242.91;4267114;27;5701;-66
2022/04/22 10:47:44;;;;;;;;;;;;;;;13.17;53.57;95251.28;4249368;27;5723;-66
2022/04/22 10:49:46;;;;;;;;;;;;;;;13.17;53.22;95245.19;4257418;27;5709;-67
2022/04/22 10:52:09;;;;;;;;;;;;;;;13.31;53.26;95247.25;4266375;27;5686;-67
2022/04/22 10:54:11;;;;;;;;;;;;;;;13.42;53.08;95250.03;4250709;27;5875;-66
2022/04/22 10:56:33;;;;;;;;;;;;;;;13.38;53.15;95239.91;4266253;27;5721;-66
2022/04/22 10:58:34;;;;;;;;;;;;;;;13.39;53.34;95243.38;4264932;27;5697;-66
2022/04/22 11:00:36;;;;;;;;;;;;;;;13.49;53.35;95238.19;4265646;27;5735;-66
2022/04/22 11:02:40;;;;;;;;;;;;;;;13.53;52.99;95230.50;4266407;27;5693;-66
2022/04/22 11:04:42;;;;;;;;;;;;;;;13.62;52.70;95239.63;4265161;27;5717;-66
2022/04/22 11:06:43;;;;;;;;;;;;;;;13.72;52.43;95237.09;4265926;27;5702;-66
2022/04/22 11:08:59;;;;;;;;;;;;;;;13.62;52.30;95236.97;4258390;27;5726;-66
2022/04/22 11:11:03;;;;;;;;;;;;;;;13.56;52.78;95240.63;4263705;27;5705;-66
2022/04/22 11:13:04;;;;;;;;;;;;;;;13.54;53.16;95240.06;4260985;27;5709;-66
2022/04/22 11:15:10;;;;;;;;;;;;;;;13.40;52.62;95229.84;4265718;27;5708;-66
2022/04/22 11:17:36;;;;;;;;;;;;;;;13.37;52.69;95232.19;4247556;27;5819;-67
2022/04/22 11:19:57;;;;;;;;;;;;;;;13.44;52.36;95232.00;4254177;27;5686;-65
2022/04/22 11:21:58;;;;;;;;;;;;;;;13.53;52.34;95233.16;4263429;27;5741;-67
2022/04/22 11:24:01;;;;;;;;;;;;;;;13.43;52.88;95230.38;4254970;27;5722;-67
2022/04/22 11:26:04;;;;;;;;;;;;;;;13.56;52.88;95243.28;4260821;27;5713;-67
2022/04/22 11:28:07;;;;;;;;;;;;;;;13.51;52.41;95235.25;4263747;27;5729;-67
2022/04/22 11:30:09;;;;;;;;;;;;;;;13.50;52.35;95231.00;4258986;27;5780;-66
2022/04/22 11:32:20;;;;;;;;;;;;;;;13.69;52.41;95229.59;4249027;27;5681;-67
2022/04/22 11:34:42;;;;;;;;;;;;;;;13.90;51.53;95234.06;4247882;27;5595;-67
2022/04/22 11:36:44;;;;;;;;;;;;;;;13.89;51.77;95234.31;4252044;27;5739;-66
2022/04/22 11:38:48;;;;;;;;;;;;;;;13.99;51.32;95234.41;4248999;27;5719;-66
2022/04/22 11:40:50;;;;;;;;;;;;;;;14.04;51.56;95228.31;4248673;27;5731;-67
2022/04/22 11:42:54;;;;;;;;;;;;;;;14.04;51.22;95237.09;4263411;27;5754;-67
2022/04/22 11:45:15;;;;;;;;;;;;;;;14.02;51.61;95228.59;4265441;27;5849;-67
2022/04/22 11:47:17;;;;;;;;;;;;;;;14.14;51.32;95237.19;4265875;27;5708;-67
2022/04/22 11:49:21;;;;;;;;;;;;;;;14.11;50.85;95236.91;4248909;27;5782;-66
2022/04/22 11:51:23;;;;;;;;;;;;;;;13.98;51.31;95227.50;4260375;27;5793;-66
2022/04/22 11:53:34;;;;;;;;;;;;;;;14.07;51.42;95236.63;4265639;27;5686;-65
2022/04/22 11:55:36;;;;;;;;;;;;;;;14.14;52.09;95231.06;4265167;27;5709;-66
2022/04/22 11:57:39;;;;;;;;;;;;;;;14.33;51.80;95224.31;4265790;27;6453;-66
2022/04/22 11:59:41;;;;;;;;;;;;;;;14.46;51.20;95234.56;4261743;27;5864;-66
2022/04/22 12:06:31;;;;;;;;;;;;;;;14.75;50.28;95231.56;4260651;27;5797;-66
2022/04/22 12:08:33;;;;;;;;;;;;;;;14.69;50.35;95224.59;4265696;27;7692;-66
2022/04/22 12:10:35;;;;;;;;;;;;;;;14.75;50.20;95227.03;4265633;27;5700;-66
2022/04/22 12:12:46;;;;;;;;;;;;;;;14.76;50.89;95227.84;4265334;27;5706;-65
2022/04/22 12:14:58;;;;;;;;;;;;;;;14.79;50.09;95232.63;4266015;27;5767;-66
2022/04/22 12:17:02;;;;;;;;;;;;;;;14.75;49.62;95236.88;4265669;27;5741;-65
2022/04/22 12:19:06;;;;;;;;;;;;;;;14.68;50.32;95230.97;4266008;27;5622;-66
2022/04/22 12:21:11;;;;;;;;;;;;;;;14.47;50.39;95225.53;4267783;27;6397;-66
2022/04/22 12:23:13;;;;;;;;;;;;;;;14.46;49.26;95226.56;4269054;27;5809;-66
2022/04/22 12:25:19;;;;;;;;;;;;;;;14.72;49.66;95226.72;4271187;27;5772;-65
2022/04/22 12:27:21;;;;;;;;;;;;;;;14.83;49.41;95223.06;4271799;27;5637;-65
2022/04/22 12:29:24;;;;;;;;;;;;;;;14.85;49.28;95223.66;4271169;27;5616;-66
2022/04/22 12:31:28;;;;;;;;;;;;;;;14.87;49.34;95223.38;4271161;27;5602;-65
2022/04/22 12:33:30;;;;;;;;;;;;;;;14.75;49.62;95220.94;4272026;27;5654;-66
2022/04/22 12:35:32;;;;;;;;;;;;;;;14.56;49.55;95217.88;4271994;27;5146;-66
2022/04/22 12:37:34;;;;;;;;;;;;;;;14.76;49.30;95222.53;4271726;27;5615;-66
2022/04/22 12:39:35;;;;;;;;;;;;;;;14.91;49.58;95217.28;4270511;27;5567;-67
2022/04/22 12:41:45;;;;;;;;;;;;;;;14.89;49.14;95219.41;4271885;27;5721;-67
2022/04/22 12:43:48;;;;;;;;;;;;;;;14.88;49.11;95220.47;4271979;27;5701;-66
2022/04/22 12:53:31;;;;;;;;;;;;;;;14.92;48.33;95215.41;4271055;27;5618;-67
2022/04/22 12:55:38;;;;;;;;;;;;;;;14.85;48.85;95205.03;4271333;27;5618;-66
2022/04/22 12:57:40;;;;;;;;;;;;;;;14.85;49.00;95205.81;4271270;27;5759;-67
2022/04/22 12:59:54;;;;;;;;;;;;;;;14.77;48.83;95208.97;4270480;27;5610;-67
2022/04/22 13:02:06;;;;;;;;;;;;;;;14.84;49.23;95209.53;4269748;27;5603;-67
2022/04/22 13:04:20;;;;;;;;;;;;;;;14.95;47.62;95204.25;4270945;27;5701;-66
2022/04/22 13:06:39;;;;;;;;;;;;;;;14.84;47.64;95198.09;4271404;27;5810;-67
2022/04/22 13:08:40;;;;;;;;;;;;;;;14.89;47.72;95197.31;4270172;27;5725;-66
2022/04/22 13:10:42;;;;;;;;;;;;;;;14.99;48.30;95200.03;4268166;27;5606;-67
2022/04/22 13:12:45;;;;;;;;;;;;;;;14.95;48.39;95188.28;4270359;27;5595;-67
2022/04/22 13:14:48;;;;;;;;;;;;;;;15.05;48.22;95198.97;4270842;27;6426;-67
2022/04/22 13:16:50;;;;;;;;;;;;;;;15.07;48.01;95196.88;4267908;27;5634;-67
2022/04/22 13:18:52;;;;;;;;;;;;;;;15.05;47.58;95194.44;4270876;27;5719;-66
2022/04/22 13:20:54;;;;;;;;;;;;;;;14.94;48.14;95197.31;4262167;27;5769;-67
2022/04/22 13:22:56;;;;;;;;;;;;;;;14.96;48.30;95193.38;4266968;27;5797;-66
2022/04/22 13:24:58;;;;;;;;;;;;;;;14.89;48.41;95198.13;4269835;27;5630;-66
2022/04/22 13:27:00;;;;;;;;;;;;;;;14.94;48.72;95192.81;4262296;27;5638;-66
2022/04/22 13:29:06;;;;;;;;;;;;;;;14.97;48.45;95192.31;4267603;27;5618;-67
2022/04/22 13:31:08;;;;;;;;;;;;;;;15.11;48.75;95188.09;4269304;27;5694;-67
2022/04/22 13:33:10;;;;;;;;;;;;;;;15.18;48.74;95192.41;4269917;27;5624;-66
2022/04/22 13:35:11;;;;;;;;;;;;;;;15.04;49.10;95190.19;4269549;27;5792;-64
2022/04/22 13:37:13;;;;;;;;;;;;;;;15.25;49.21;95191.06;4268972;27;5618;-65
2022/04/22 13:39:15;;;;;;;;;;;;;;;15.37;49.09;95188.19;4267261;27;5750;-66
2022/04/22 13:41:16;;;;;;;;;;;;;;;15.48;48.86;95189.00;4261732;27;5820;-66
2022/04/22 13:43:18;;;;;;;;;;;;;;;15.52;48.69;95182.91;4267250;27;5816;-67
2022/04/22 13:52:21;;;;;;;;;;;;;;;15.79;48.47;95184.59;4263773;27;5854;-65
2022/04/22 13:54:23;;;;;;;;;;;;;;;15.85;48.49;95178.97;4266742;27;5710;-66
2022/04/22 13:56:24;;;;;;;;;;;;;;;15.92;48.53;95181.41;4264567;27;5734;-66
2022/04/22 13:58:26;;;;;;;;;;;;;;;15.95;48.43;95175.53;4263762;27;5681;-66
2022/04/22 14:00:28;;;;;;;;;;;;;;;15.97;48.45;95178.75;4266195;27;5709;-66
2022/04/22 14:02:30;;;;;;;;;;;;;;;15.96;48.51;95179.78;4266910;27;5709;-66
2022/04/22 14:04:34;;;;;;;;;;;;;;;15.97;48.69;95173.41;4259331;27;5688;-66
2022/04/22 14:06:37;;;;;;;;;;;;;;;15.93;48.78;95175.00;4262624;27;5778;-66
2022/04/22 14:08:40;;;;;;;;;;;;;;;15.97;48.61;95166.22;4262552;27;5761;-66
2022/04/22 14:10:41;;;;;;;;;;;;;;;15.77;48.73;95168.06;4263085;27;5761;-67
2022/04/22 14:12:46;;;;;;;;;;;;;;;15.77;48.05;95165.41;4263087;27;5741;-66
2022/04/22 14:14:53;;;;;;;;;;;;;;;15.75;48.77;95159.53;4266178;27;5806;-67
2022/04/22 14:16:55;;;;;;;;;;;;;;;15.88;48.54;95159.03;4265159;27;5738;-67
2022/04/22 14:18:57;;;;;;;;;;;;;;;15.73;48.21;95162.44;4266473;27;5713;-67
2022/04/22 14:20:59;;;;;;;;;;;;;;;15.71;47.64;95170.72;4266372;27;5717;-66
2022/04/22 14:23:00;;;;;;;;;;;;;;;15.67;48.53;95169.66;4258916;27;5669;-67
2022/04/22 14:25:02;;;;;;;;;;;;;;;15.75;47.94;95168.34;4251138;27;5844;-66
2022/04/22 14:27:06;;;;;;;;;;;;;;;15.64;48.40;95170.19;4266467;27;5705;-71
2022/04/22 14:29:08;;;;;;;;;;;;;;;15.68;48.31;95168.59;4263232;27;7141;-66
2022/04/22 14:31:11;;;;;;;;;;;;;;;15.70;48.48;95170.97;4250718;27;5706;-67
2022/04/22 14:33:13;;;;;;;;;;;;;;;15.61;49.00;95173.34;4250038;27;5855;-68
2022/04/22 14:35:15;;;;;;;;;;;;;;;15.48;47.62;95175.69;4265936;27;5583;-68
2022/04/22 14:37:17;;;;;;;;;;;;;;;15.44;48.84;95170.91;4253614;27;5658;-67
2022/04/22 14:39:19;;;;;;;;;;;;;;;15.66;48.87;95173.38;4262835;27;5950;-67
2022/04/22 14:41:24;;;;;;;;;;;;;;;15.71;48.53;95178.69;4265456;27;5697;-67
2022/04/22 14:43:25;;;;;;;;;;;;;;;15.78;48.06;95180.31;4265555;27;5712;-67
2022/04/22 14:45:29;;;;;;;;;;;;;;;15.79;48.10;95181.91;4265960;27;5861;-67
2022/04/22 14:47:31;;;;;;;;;;;;;;;15.84;47.27;95180.03;4265797;27;6624;-67
2022/04/22 14:49:33;;;;;;;;;;;;;;;15.82;46.77;95181.38;4261078;27;5737;-67
2022/04/22 14:51:35;;;;;;;;;;;;;;;15.81;47.45;95185.13;4265622;27;5718;-67
2022/04/22 14:53:36;;;;;;;;;;;;;;;15.85;47.54;95178.97;4265733;27;5702;-65
2022/04/22 14:55:38;;;;;;;;;;;;;;;15.82;47.14;95176.06;4268057;27;5618;-66
2022/04/22 14:57:40;;;;;;;;;;;;;;;15.82;46.68;95178.72;4267972;27;5607;-66
2022/04/22 14:59:42;;;;;;;;;;;;;;;15.84;45.97;95180.03;4267810;27;5662;-63
2022/04/22 15:01:43;;;;;;;;;;;;;;;15.76;46.02;95183.25;4260994;27;5901;-65
2022/04/22 15:03:45;;;;;;;;;;;;;;;15.83;45.98;95182.97;4266645;27;5602;-71
2022/04/22 15:05:48;;;;;;;;;;;;;;;15.87;46.23;95186.75;4266811;27;6280;-71
2022/04/22 15:07:50;;;;;;;;;;;;;;;15.86;46.12;95182.47;4263823;27;5602;-69
2022/04/22 15:09:52;;;;;;;;;;;;;;;15.83;46.04;95188.31;4266705;27;5160;-70
2022/04/22 15:11:53;;;;;;;;;;;;;;;15.66;46.13;95189.38;4267667;27;5086;-68
2022/04/22 15:13:56;;;;;;;;;;;;;;;15.66;46.33;95189.38;4265242;27;5603;-71
2022/04/22 15:15:59;;;;;;;;;;;;;;;15.67;46.69;95188.28;4265429;27;5590;-70
2022/04/22 15:25:02;;;;;;;;;;;;;;;15.61;46.84;95186.66;4266684;27;5822;-67
2022/04/22 15:27:04;;;;;;;;;;;;;;;15.71;47.24;95186.69;4273224;27;5837;-67
2022/04/22 15:29:06;;;;;;;;;;;;;;;15.79;46.85;95181.91;4266466;27;6564;-66
2022/04/22 15:31:13;;;;;;;;;;;;;;;15.76;46.73;95185.13;4267846;27;5817;-67
2022/04/22 15:33:15;;;;;;;;;;;;;;;15.84;46.19;95187.25;4265015;27;6275;-66
2022/04/22 15:35:17;;;;;;;;;;;;;;;15.86;46.09;95188.59;4266910;27;5811;-67
2022/04/22 15:37:18;;;;;;;;;;;;;;;15.96;45.92;95193.91;4261039;27;5713;-67
2022/04/22 15:39:20;;;;;;;;;;;;;;;15.79;45.84;95182.72;4252282;27;5647;-67
2022/04/22 15:41:29;;;;;;;;;;;;;;;15.67;46.09;95185.63;4266196;27;5658;-67
2022/04/22 15:43:38;;;;;;;;;;;;;;;15.71;46.11;95186.69;4265844;27;5650;-67
2022/04/22 15:45:40;;;;;;;;;;;;;;;15.80;45.88;95184.31;4263531;27;5781;-67
2022/04/22 15:47:41;;;;;;;;;;;;;;;15.79;46.96;95182.72;4266769;27;5753;-67
2022/04/22 15:49:43;;;;;;;;;;;;;;;15.90;46.29;95178.19;4266324;27;5697;-67
2022/04/22 15:51:44;;;;;;;;;;;;;;;15.97;46.12;95187.53;4265580;27;6307;-67
2022/04/22 15:53:46;;;;;;;;;;;;;;;16.01;46.46;95185.94;4259706;27;5953;-67
2022/04/22 15:55:48;;;;;;;;;;;;;;;16.06;46.39;95184.34;4263887;27;5685;-66
2022/04/22 15:57:50;;;;;;;;;;;;;;;16.06;45.54;95182.47;4255880;27;5848;-67
2022/04/22 15:59:51;;;;;;;;;;;;;;;15.76;46.51;95185.13;4265285;27;5677;-67
2022/04/22 16:01:53;;;;;;;;;;;;;;;15.83;46.11;95177.66;4249871;27;5600;-66
2022/04/22 16:03:56;;;;;;;;;;;;;;;15.94;45.93;95179.25;4267917;27;5212;-67
2022/04/22 16:05:57;;;;;;;;;;;;;;;15.97;45.99;95173.41;4268340;27;5680;-67
2022/04/22 16:07:59;;;;;;;;;;;;;;;15.93;46.03;95178.47;4268259;27;5645;-67
2022/04/22 16:10:01;;;;;;;;;;;;;;;15.98;46.57;95175.81;4267959;27;5630;-67
2022/04/22 16:16:44;;;;;;;;;;;;;;;15.93;46.09;95177.66;4266530;27;5615;-67